Terminal Aerodrome Forecast
Issued by NWS Charleston, WV

Current Version | Previous Version | Graphics & Text | Print | Product List | Glossary On
Versions: 1 2 3 4 5 6 7 8 9 10 11 12 13 14 15 16 17 18 19 20 21
224
FTUS41 KRLX 240537
TAFBKW
TAF
KBKW 240537Z 2406/2506 18007KT P6SM BKN080
     FM241500 21010G17KT P6SM OVC040
     FM241700 17010KT P6SM -RA SCT025 BKN035
     FM242200 19010KT P6SM SCT080
     FM250000 19006KT P6SM SCT080=

USA.gov is the U.S. government's official web portal to all federal, state and local government web resources and services.